Seastreak Highlands — WDE4031 — position and weather

sailwx.info

Track history (hours):
 
Tides and Currents Weather Stations Pressure Air Temp Water Temp Dewpoint Dewpoint Depression Visibility Wind Speed Wind Dir Waves Ship Positions

Seastreak Highlands

Owner: Seastreak llc, atlantic highlands, NJ. More information available from US FCC via Universal Licensing System and Coast Guard Vessel Documentation Center.

Last reported at 2015-Aug-28 02:20 UTC. Time now 2015-Aug-28 05:08 UTC.
Position N 40°32' W 074°02'.

Length 44 m; draft 2 m.

Type: High speed craft. MMSI: 367347670.

Date/timePositionNaut miles runAvg speedWind from/ knotsBaromVisibWave heightAir tempDewpointWater temp
2015-Aug-28 02:20N 40°32' W 074°02'1316.2
2015-Aug-28 01:34N 40°45' W 073°58'2017.3
2015-Aug-28 00:24N 40°25' W 073°60'0 0.0
2015-Aug-27 23:32N 40°25' W 073°60'1212.7
2015-Aug-27 22:34N 40°37' W 074°03'0 0.1
2015-Aug-27 21:34N 40°37' W 074°03'2 1.7
2015-Aug-27 20:32N 40°35' W 074°03'1010.3
2015-Aug-27 19:34N 40°44' W 073°58'1914.7
2015-Aug-27 18:14N 40°25' W 074°02'1725.0
2015-Aug-27 17:33N 40°42' W 074°00'1413.8
2015-Aug-27 16:33N 40°28' W 074°01'1111.1
2015-Aug-27 15:34N 40°39' W 074°02'1 1.3
2015-Aug-27 14:34N 40°38' W 074°02'5 4.0
2015-Aug-27 13:23N 40°34' W 074°03'1012.5
2015-Aug-27 12:34N 40°43' W 073°58'1813.9
2015-Aug-27 11:15N 40°25' W 074°01'1 0.9
2015-Aug-27 10:33N 40°25' W 074°02'8 1.0
2015-Aug-27 02:18N 40°33' W 074°02'1215.5
2015-Aug-27 01:33N 40°45' W 073°58'20 9.1
2015-Aug-26 23:22N 40°25' W 073°60'1114.0
2015-Aug-26 22:34N 40°36' W 074°03'0 0.4
2015-Aug-26 21:34N 40°36' W 074°03'1 1.3
2015-Aug-26 20:34N 40°35' W 074°03'1010.2
2015-Aug-26 19:33N 40°45' W 073°58'3 1.4
2015-Aug-26 17:34N 40°42' W 074°00'1813.1
2015-Aug-26 16:13N 40°25' W 073°60'1523.4
2015-Aug-26 15:34N 40°40' W 074°02'2 2.0
2015-Aug-26 14:34N 40°38' W 074°03'4 3.6
2015-Aug-26 13:22N 40°34' W 074°02'1113.8
2015-Aug-26 12:34N 40°45' W 073°58'20 9.8
2015-Aug-26 10:32N 40°25' W 074°00'2 0.3
2015-Aug-26 02:33N 40°27' W 074°02'1818.2
2015-Aug-26 01:33N 40°45' W 073°58'2019.6
2015-Aug-26 00:32N 40°25' W 073°60'0 0.1
2015-Aug-25 23:33N 40°25' W 073°60'1211.5
2015-Aug-25 22:32N 40°36' W 074°03'1 1.0
2015-Aug-25 21:34N 40°37' W 074°03'2 2.2
2015-Aug-25 20:33N 40°35' W 074°02'8 8.0
2015-Aug-25 19:34N 40°42' W 073°59'1716.6
2015-Aug-25 18:32N 40°25' W 074°01'1717.5
2015-Aug-25 17:34N 40°42' W 073°59'1515.1
2015-Aug-25 16:33N 40°27' W 074°01'1313.5
2015-Aug-25 15:34N 40°41' W 074°02'1 0.7
2015-Aug-25 14:34N 40°40' W 074°02'1212.1
2015-Aug-25 13:33N 40°28' W 074°01'1716.9
2015-Aug-25 12:34N 40°45' W 073°58'2016.1
2015-Aug-25 11:20N 40°25' W 074°02'1 1.2
2015-Aug-25 10:32N 40°25' W 074°01'1 0.1
2015-Aug-25 02:33N 40°26' W 074°01'1918.8
2015-Aug-25 01:34N 40°45' W 073°58'2019.7
2015-Aug-25 00:34N 40°25' W 074°00'1 0.5
2015-Aug-24 23:33N 40°25' W 073°60'1010.3
2015-Aug-24 22:33N 40°35' W 074°02'3 3.3
2015-Aug-24 21:34N 40°38' W 074°03'3 3.2
2015-Aug-24 20:33N 40°35' W 074°03'1110.6
2015-Aug-24 19:34N 40°45' W 073°58'2018.8
2015-Aug-24 18:31N 40°25' W 074°02'1818.9
2015-Aug-24 17:33N 40°43' W 073°58'1716.9
2015-Aug-24 16:33N 40°26' W 074°01'1616.0
2015-Aug-24 15:34N 40°42' W 074°00'4 3.8
2015-Aug-24 14:34N 40°39' W 074°02'1110.9
2015-Aug-24 13:33N 40°28' W 074°01'1716.9
2015-Aug-24 12:33N 40°45' W 073°58'2017.7
2015-Aug-24 11:26N 40°25' W 074°02'0 0.0
2015-Aug-24 10:33N 40°25' W 074°02'0 0.0
2015-Aug-23 22:18N 40°25' W 074°02'1 1.8
2015-Aug-23 21:30N 40°25' W 074°00'2021.2
2015-Aug-23 20:34N 40°45' W 073°58'17 3.4
2015-Aug-23 15:33N 40°28' W 074°01'1716.8
2015-Aug-23 14:34N 40°44' W 073°58'2019.5
2015-Aug-23 13:33N 40°25' W 074°00'9 9.1
2015-Aug-23 12:33N 40°34' W 074°02'1111.4
2015-Aug-23 11:34N 40°45' W 073°58'2020.0
2015-Aug-23 10:33N 40°25' W 073°60'2 0.2
2015-Aug-22 22:33N 40°25' W 074°02'5 4.1
2015-Aug-22 21:24N 40°30' W 074°02'1517.8
2015-Aug-22 20:34N 40°45' W 073°58'2010.0
2015-Aug-22 18:33N 40°25' W 073°60'0 0.1
2015-Aug-22 17:33N 40°25' W 073°60'0 0.0
2015-Aug-22 16:25N 40°25' W 073°60'3 3.8
2015-Aug-22 15:32N 40°28' W 074°00'1717.2
2015-Aug-22 14:33N 40°45' W 073°58'2019.7
2015-Aug-22 13:32N 40°25' W 073°60'1313.5
2015-Aug-22 12:33N 40°38' W 074°03'6 5.8
2015-Aug-22 11:34N 40°43' W 073°59'1716.9
2015-Aug-22 10:33N 40°25' W 074°01'1 0.1
2015-Aug-22 00:28N 40°25' W 074°02'0 0.5
2015-Aug-21 23:33N 40°25' W 074°01'1818.3
2015-Aug-21 22:33N 40°43' W 073°58'1818.4
2015-Aug-21 21:33N 40°25' W 074°00'1817.5
2015-Aug-21 20:33N 40°43' W 073°59'6 5.9
2015-Aug-21 19:34N 40°37' W 074°03'13 2.6
2015-Aug-21 14:32N 40°25' W 073°60'8 2.6
2015-Aug-21 11:27N 40°32' W 074°02'7 7.9
2015-Aug-21 10:34N 40°39' W 074°02'1413.6
2015-Aug-21 09:31N 40°25' W 074°02'0 0.0
2015-Aug-21 08:33N 40°25' W 074°02'0 0.0
2015-Aug-21 07:32N 40°25' W 074°02'0 0.0
2015-Aug-21 06:33N 40°25' W 074°02'0 0.0
2015-Aug-21 05:33N 40°25' W 074°02'0 0.0
2015-Aug-21 04:33N 40°25' W 074°02'0 0.0
2015-Aug-21 03:33N 40°25' W 074°02'0 0.0
2015-Aug-21 02:33N 40°25' W 074°02'0 0.0
2015-Aug-21 01:33N 40°25' W 074°02'1 1.3
2015-Aug-21 00:33N 40°25' W 074°00'1918.5
2015-Aug-20 23:33N 40°44' W 073°58'1918.9
2015-Aug-20 22:33N 40°25' W 073°60'1717.5
2015-Aug-20 21:33N 40°42' W 074°00'4 4.5
2015-Aug-20 20:34N 40°38' W 074°03'1010.3
2015-Aug-20 19:33N 40°27' W 074°01'1717.3
2015-Aug-20 18:33N 40°45' W 073°58'0 0.0
2015-Aug-20 17:33N 40°45' W 073°58'0 0.0
2015-Aug-20 16:33N 40°45' W 073°58'0 0.0
2015-Aug-20 15:33N 40°45' W 073°58'5 4.9
2015-Aug-20 14:34N 40°40' W 074°02'1111.0
2015-Aug-20 13:33N 40°29' W 074°02'1615.8
2015-Aug-20 12:33N 40°45' W 073°58'1919.2
2015-Aug-20 11:33N 40°26' W 074°02'0 0.1
2015-Aug-20 03:04N 40°25' W 074°02'4 6.2
2015-Aug-20 02:29N 40°29' W 074°02'1617.3
2015-Aug-20 01:33N 40°45' W 073°58'19 9.1
2015-Aug-19 23:26N 40°25' W 074°01'1314.7
2015-Aug-19 22:34N 40°38' W 074°03'3 3.4
2015-Aug-19 21:33N 40°35' W 074°03'1 0.6
2015-Aug-19 20:33N 40°35' W 074°03'9 9.2
2015-Aug-19 19:33N 40°44' W 073°58'11 7.6
2015-Aug-19 18:04N 40°33' W 074°02'1019.3
2015-Aug-19 17:34N 40°43' W 073°59'1510.9
2015-Aug-19 16:11N 40°28' W 074°01'1422.7
2015-Aug-19 15:33N 40°42' W 074°00'2 2.2
2015-Aug-19 14:34N 40°40' W 074°02'7 6.2
2015-Aug-19 13:25N 40°33' W 074°03'1214.0
2015-Aug-19 12:33N 40°45' W 073°58'2014.6
2015-Aug-19 11:13N 40°25' W 074°02'0 0.0
2015-Aug-19 10:30N 40°25' W 074°02'0 0.0
2015-Aug-19 09:31N 40°25' W 074°02'0 0.0
2015-Aug-19 08:33N 40°25' W 074°02'0 0.0
2015-Aug-19 07:25N 40°25' W 074°02'0 0.0
2015-Aug-19 06:21N 40°25' W 074°02'0 0.0
2015-Aug-19 05:33N 40°25' W 074°02'0 0.0
2015-Aug-19 04:33N 40°25' W 074°02'0 0.0
2015-Aug-19 03:33N 40°25' W 074°02'0 0.0
2015-Aug-19 02:33N 40°25' W 074°02'0 0.0
2015-Aug-19 01:33N 40°25' W 074°02'0 0.0
2015-Aug-19 00:33N 40°25' W 074°02'0 0.0
2015-Aug-18 23:34N 40°25' W 074°02'0 0.0
2015-Aug-18 22:33N 40°25' W 074°02'0 0.0
2015-Aug-18 21:33N 40°25' W 074°02'0 0.0
2015-Aug-18 20:33N 40°25' W 074°02'0 0.0
2015-Aug-18 19:34N 40°25' W 074°02'0 0.0
2015-Aug-18 18:32N 40°25' W 074°02'0 0.0
2015-Aug-18 17:33N 40°25' W 074°02'0 0.0
2015-Aug-18 16:33N 40°25' W 074°02'0 0.0
2015-Aug-18 15:33N 40°25' W 074°02'0 0.0
2015-Aug-18 14:34N 40°25' W 074°02'0 0.0
2015-Aug-18 13:33N 40°25' W 074°02'0 0.0
2015-Aug-18 12:33N 40°25' W 074°02'0 0.0
2015-Aug-18 11:33N 40°25' W 074°02'0 0.0
2015-Aug-18 10:33N 40°25' W 074°02'0 0.0
2015-Aug-18 09:30N 40°25' W 074°02'0 0.0
2015-Aug-18 08:32N 40°25' W 074°02'0 0.0
2015-Aug-18 07:33N 40°25' W 074°02'0 0.0
2015-Aug-18 06:33N 40°25' W 074°02'0 0.0
2015-Aug-18 05:31N 40°25' W 074°02'0 0.0
2015-Aug-18 04:33N 40°25' W 074°02'0 0.0
2015-Aug-18 04:11N 40°25' W 074°02'0 0.0
2015-Aug-18 04:09N 40°25' W 074°02'0 0.0
2015-Aug-18 03:33N 40°25' W 074°02'0 0.0
2015-Aug-18 02:32N 40°25' W 074°02'  
Track history (hours):
 
Tides and Currents Weather Stations Pressure Air Temp Water Temp Dewpoint Dewpoint Depression Visibility Wind Speed Wind Dir Waves Ship Positions

Seastreak Highlands

Owner: Seastreak llc, atlantic highlands, NJ. More information available from US FCC via Universal Licensing System and Coast Guard Vessel Documentation Center.

Last reported at 2015-Aug-28 02:20 UTC. Time now 2015-Aug-28 05:08 UTC.
Position N 40°32' W 074°02'.

Length 44 m; draft 2 m.

Type: High speed craft. MMSI: 367347670.

Date/timePositionNaut miles runAvg speedWind from/ knotsBaromVisibWave heightAir tempDewpointWater temp
2015-Aug-28 02:20N 40°32' W 074°02'1316.2
2015-Aug-28 01:34N 40°45' W 073°58'2017.3
2015-Aug-28 00:24N 40°25' W 073°60'0 0.0
2015-Aug-27 23:32N 40°25' W 073°60'1212.7
2015-Aug-27 22:34N 40°37' W 074°03'0 0.1
2015-Aug-27 21:34N 40°37' W 074°03'2 1.7
2015-Aug-27 20:32N 40°35' W 074°03'1010.3
2015-Aug-27 19:34N 40°44' W 073°58'1914.7
2015-Aug-27 18:14N 40°25' W 074°02'1725.0
2015-Aug-27 17:33N 40°42' W 074°00'1413.8
2015-Aug-27 16:33N 40°28' W 074°01'1111.1
2015-Aug-27 15:34N 40°39' W 074°02'1 1.3
2015-Aug-27 14:34N 40°38' W 074°02'5 4.0
2015-Aug-27 13:23N 40°34' W 074°03'1012.5
2015-Aug-27 12:34N 40°43' W 073°58'1813.9
2015-Aug-27 11:15N 40°25' W 074°01'1 0.9
2015-Aug-27 10:33N 40°25' W 074°02'8 1.0
2015-Aug-27 02:18N 40°33' W 074°02'1215.5
2015-Aug-27 01:33N 40°45' W 073°58'20 9.1
2015-Aug-26 23:22N 40°25' W 073°60'1114.0
2015-Aug-26 22:34N 40°36' W 074°03'0 0.4
2015-Aug-26 21:34N 40°36' W 074°03'1 1.3
2015-Aug-26 20:34N 40°35' W 074°03'1010.2
2015-Aug-26 19:33N 40°45' W 073°58'3 1.4
2015-Aug-26 17:34N 40°42' W 074°00'1813.1
2015-Aug-26 16:13N 40°25' W 073°60'1523.4
2015-Aug-26 15:34N 40°40' W 074°02'2 2.0
2015-Aug-26 14:34N 40°38' W 074°03'4 3.6
2015-Aug-26 13:22N 40°34' W 074°02'1113.8
2015-Aug-26 12:34N 40°45' W 073°58'20 9.8
2015-Aug-26 10:32N 40°25' W 074°00'2 0.3
2015-Aug-26 02:33N 40°27' W 074°02'1818.2
2015-Aug-26 01:33N 40°45' W 073°58'2019.6
2015-Aug-26 00:32N 40°25' W 073°60'0 0.1
2015-Aug-25 23:33N 40°25' W 073°60'1211.5
2015-Aug-25 22:32N 40°36' W 074°03'1 1.0
2015-Aug-25 21:34N 40°37' W 074°03'2 2.2
2015-Aug-25 20:33N 40°35' W 074°02'8 8.0
2015-Aug-25 19:34N 40°42' W 073°59'1716.6
2015-Aug-25 18:32N 40°25' W 074°01'1717.5
2015-Aug-25 17:34N 40°42' W 073°59'1515.1
2015-Aug-25 16:33N 40°27' W 074°01'1313.5
2015-Aug-25 15:34N 40°41' W 074°02'1 0.7
2015-Aug-25 14:34N 40°40' W 074°02'1212.1
2015-Aug-25 13:33N 40°28' W 074°01'1716.9
2015-Aug-25 12:34N 40°45' W 073°58'2016.1
2015-Aug-25 11:20N 40°25' W 074°02'1 1.2
2015-Aug-25 10:32N 40°25' W 074°01'1 0.1
2015-Aug-25 02:33N 40°26' W 074°01'1918.8
2015-Aug-25 01:34N 40°45' W 073°58'2019.7
2015-Aug-25 00:34N 40°25' W 074°00'1 0.5
2015-Aug-24 23:33N 40°25' W 073°60'1010.3
2015-Aug-24 22:33N 40°35' W 074°02'3 3.3
2015-Aug-24 21:34N 40°38' W 074°03'3 3.2
2015-Aug-24 20:33N 40°35' W 074°03'1110.6
2015-Aug-24 19:34N 40°45' W 073°58'2018.8
2015-Aug-24 18:31N 40°25' W 074°02'1818.9
2015-Aug-24 17:33N 40°43' W 073°58'1716.9
2015-Aug-24 16:33N 40°26' W 074°01'1616.0
2015-Aug-24 15:34N 40°42' W 074°00'4 3.8
2015-Aug-24 14:34N 40°39' W 074°02'1110.9
2015-Aug-24 13:33N 40°28' W 074°01'1716.9
2015-Aug-24 12:33N 40°45' W 073°58'2017.7
2015-Aug-24 11:26N 40°25' W 074°02'0 0.0
2015-Aug-24 10:33N 40°25' W 074°02'0 0.0
2015-Aug-23 22:18N 40°25' W 074°02'1 1.8
2015-Aug-23 21:30N 40°25' W 074°00'2021.2
2015-Aug-23 20:34N 40°45' W 073°58'17 3.4
2015-Aug-23 15:33N 40°28' W 074°01'1716.8
2015-Aug-23 14:34N 40°44' W 073°58'2019.5
2015-Aug-23 13:33N 40°25' W 074°00'9 9.1
2015-Aug-23 12:33N 40°34' W 074°02'1111.4
2015-Aug-23 11:34N 40°45' W 073°58'2020.0
2015-Aug-23 10:33N 40°25' W 073°60'2 0.2
2015-Aug-22 22:33N 40°25' W 074°02'5 4.1
2015-Aug-22 21:24N 40°30' W 074°02'1517.8
2015-Aug-22 20:34N 40°45' W 073°58'2010.0
2015-Aug-22 18:33N 40°25' W 073°60'0 0.1
2015-Aug-22 17:33N 40°25' W 073°60'0 0.0
2015-Aug-22 16:25N 40°25' W 073°60'3 3.8
2015-Aug-22 15:32N 40°28' W 074°00'1717.2
2015-Aug-22 14:33N 40°45' W 073°58'2019.7
2015-Aug-22 13:32N 40°25' W 073°60'1313.5
2015-Aug-22 12:33N 40°38' W 074°03'6 5.8
2015-Aug-22 11:34N 40°43' W 073°59'1716.9
2015-Aug-22 10:33N 40°25' W 074°01'1 0.1
2015-Aug-22 00:28N 40°25' W 074°02'0 0.5
2015-Aug-21 23:33N 40°25' W 074°01'1818.3
2015-Aug-21 22:33N 40°43' W 073°58'1818.4
2015-Aug-21 21:33N 40°25' W 074°00'1817.5
2015-Aug-21 20:33N 40°43' W 073°59'6 5.9
2015-Aug-21 19:34N 40°37' W 074°03'13 2.6
2015-Aug-21 14:32N 40°25' W 073°60'8 2.6
2015-Aug-21 11:27N 40°32' W 074°02'7 7.9
2015-Aug-21 10:34N 40°39' W 074°02'1413.6
2015-Aug-21 09:31N 40°25' W 074°02'0 0.0
2015-Aug-21 08:33N 40°25' W 074°02'0 0.0
2015-Aug-21 07:32N 40°25' W 074°02'0 0.0
2015-Aug-21 06:33N 40°25' W 074°02'0 0.0
2015-Aug-21 05:33N 40°25' W 074°02'0 0.0
2015-Aug-21 04:33N 40°25' W 074°02'0 0.0
2015-Aug-21 03:33N 40°25' W 074°02'0 0.0
2015-Aug-21 02:33N 40°25' W 074°02'0 0.0
2015-Aug-21 01:33N 40°25' W 074°02'1 1.3
2015-Aug-21 00:33N 40°25' W 074°00'1918.5
2015-Aug-20 23:33N 40°44' W 073°58'1918.9
2015-Aug-20 22:33N 40°25' W 073°60'1717.5
2015-Aug-20 21:33N 40°42' W 074°00'4 4.5
2015-Aug-20 20:34N 40°38' W 074°03'1010.3
2015-Aug-20 19:33N 40°27' W 074°01'1717.3
2015-Aug-20 18:33N 40°45' W 073°58'0 0.0
2015-Aug-20 17:33N 40°45' W 073°58'0 0.0
2015-Aug-20 16:33N 40°45' W 073°58'0 0.0
2015-Aug-20 15:33N 40°45' W 073°58'5 4.9
2015-Aug-20 14:34N 40°40' W 074°02'1111.0
2015-Aug-20 13:33N 40°29' W 074°02'1615.8
2015-Aug-20 12:33N 40°45' W 073°58'1919.2
2015-Aug-20 11:33N 40°26' W 074°02'0 0.1
2015-Aug-20 03:04N 40°25' W 074°02'4 6.2
2015-Aug-20 02:29N 40°29' W 074°02'1617.3
2015-Aug-20 01:33N 40°45' W 073°58'19 9.1
2015-Aug-19 23:26N 40°25' W 074°01'1314.7
2015-Aug-19 22:34N 40°38' W 074°03'3 3.4
2015-Aug-19 21:33N 40°35' W 074°03'1 0.6
2015-Aug-19 20:33N 40°35' W 074°03'9 9.2
2015-Aug-19 19:33N 40°44' W 073°58'11 7.6
2015-Aug-19 18:04N 40°33' W 074°02'1019.3
2015-Aug-19 17:34N 40°43' W 073°59'1510.9
2015-Aug-19 16:11N 40°28' W 074°01'1422.7
2015-Aug-19 15:33N 40°42' W 074°00'2 2.2
2015-Aug-19 14:34N 40°40' W 074°02'7 6.2
2015-Aug-19 13:25N 40°33' W 074°03'1214.0
2015-Aug-19 12:33N 40°45' W 073°58'2014.6
2015-Aug-19 11:13N 40°25' W 074°02'0 0.0
2015-Aug-19 10:30N 40°25' W 074°02'0 0.0
2015-Aug-19 09:31N 40°25' W 074°02'0 0.0
2015-Aug-19 08:33N 40°25' W 074°02'0 0.0
2015-Aug-19 07:25N 40°25' W 074°02'0 0.0
2015-Aug-19 06:21N 40°25' W 074°02'0 0.0
2015-Aug-19 05:33N 40°25' W 074°02'0 0.0
2015-Aug-19 04:33N 40°25' W 074°02'0 0.0
2015-Aug-19 03:33N 40°25' W 074°02'0 0.0
2015-Aug-19 02:33N 40°25' W 074°02'0 0.0
2015-Aug-19 01:33N 40°25' W 074°02'0 0.0
2015-Aug-19 00:33N 40°25' W 074°02'0 0.0
2015-Aug-18 23:34N 40°25' W 074°02'0 0.0
2015-Aug-18 22:33N 40°25' W 074°02'0 0.0
2015-Aug-18 21:33N 40°25' W 074°02'0 0.0
2015-Aug-18 20:33N 40°25' W 074°02'0 0.0
2015-Aug-18 19:34N 40°25' W 074°02'0 0.0
2015-Aug-18 18:32N 40°25' W 074°02'0 0.0
2015-Aug-18 17:33N 40°25' W 074°02'0 0.0
2015-Aug-18 16:33N 40°25' W 074°02'0 0.0
2015-Aug-18 15:33N 40°25' W 074°02'0 0.0
2015-Aug-18 14:34N 40°25' W 074°02'0 0.0
2015-Aug-18 13:33N 40°25' W 074°02'0 0.0
2015-Aug-18 12:33N 40°25' W 074°02'0 0.0
2015-Aug-18 11:33N 40°25' W 074°02'0 0.0
2015-Aug-18 10:33N 40°25' W 074°02'0 0.0
2015-Aug-18 09:30N 40°25' W 074°02'0 0.0
2015-Aug-18 08:32N 40°25' W 074°02'0 0.0
2015-Aug-18 07:33N 40°25' W 074°02'0 0.0
2015-Aug-18 06:33N 40°25' W 074°02'0 0.0
2015-Aug-18 05:31N 40°25' W 074°02'0 0.0
2015-Aug-18 04:33N 40°25' W 074°02'0 0.0
2015-Aug-18 04:11N 40°25' W 074°02'0 0.0
2015-Aug-18 04:09N 40°25' W 074°02'0 0.0
2015-Aug-18 03:33N 40°25' W 074°02'0 0.0
2015-Aug-18 02:32N 40°25' W 074°02'  

Dump ship's entire track history